sensor_id;sensor_type;location;lat;lon;timestamp;temperature;humidity
12604;DHT22;6367;52.508;13.284;2023-12-28T00:00:46;8.40;99.90
12604;DHT22;6367;52.508;13.284;2023-12-28T00:03:13;8.40;99.90
12604;DHT22;6367;52.508;13.284;2023-12-28T00:05:39;8.40;99.90
12604;DHT22;6367;52.508;13.284;2023-12-28T00:08:04;8.40;99.90
12604;DHT22;6367;52.508;13.284;2023-12-28T00:10:30;8.50;99.90
12604;DHT22;6367;52.508;13.284;2023-12-28T00:12:56;8.50;99.90
12604;DHT22;6367;52.508;13.284;2023-12-28T00:15:22;8.50;99.90
12604;DHT22;6367;52.508;13.284;2023-12-28T00:17:48;8.60;99.90
12604;DHT22;6367;52.508;13.284;2023-12-28T00:20:14;8.60;99.90
12604;DHT22;6367;52.508;13.284;2023-12-28T00:22:40;8.60;99.90
12604;DHT22;6367;52.508;13.284;2023-12-28T00:25:06;8.70;99.90
12604;DHT22;6367;52.508;13.284;2023-12-28T00:27:32;8.60;99.90
12604;DHT22;6367;52.508;13.284;2023-12-28T00:29:59;8.70;99.90
12604;DHT22;6367;52.508;13.284;2023-12-28T00:32:25;8.70;99.90
12604;DHT22;6367;52.508;13.284;2023-12-28T00:34:51;8.60;99.90
12604;DHT22;6367;52.508;13.284;2023-12-28T00:37:16;8.70;99.90
12604;DHT22;6367;52.508;13.284;2023-12-28T00:39:42;8.60;99.90
12604;DHT22;6367;52.508;13.284;2023-12-28T00:42:08;8.60;99.90
12604;DHT22;6367;52.508;13.284;2023-12-28T00:44:34;8.70;99.90
12604;DHT22;6367;52.508;13.284;2023-12-28T00:46:59;8.60;99.90
12604;DHT22;6367;52.508;13.284;2023-12-28T00:49:25;8.70;99.90
12604;DHT22;6367;52.508;13.284;2023-12-28T00:51:50;8.70;99.90
12604;DHT22;6367;52.508;13.284;2023-12-28T00:54:16;8.70;99.90
12604;DHT22;6367;52.508;13.284;2023-12-28T00:56:42;8.70;99.90
12604;DHT22;6367;52.508;13.284;2023-12-28T00:59:07;8.70;99.90
12604;DHT22;6367;52.508;13.284;2023-12-28T01:01:33;9.10;99.90
12604;DHT22;6367;52.508;13.284;2023-12-28T01:03:58;8.70;99.90
12604;DHT22;6367;52.508;13.284;2023-12-28T01:06:24;8.80;99.90
12604;DHT22;6367;52.508;13.284;2023-12-28T01:08:54;8.80;99.90
12604;DHT22;6367;52.508;13.284;2023-12-28T01:11:20;9.20;99.90
12604;DHT22;6367;52.508;13.284;2023-12-28T01:13:46;8.80;99.90
12604;DHT22;6367;52.508;13.284;2023-12-28T01:16:14;8.90;99.90
12604;DHT22;6367;52.508;13.284;2023-12-28T01:18:40;8.90;99.90
12604;DHT22;6367;52.508;13.284;2023-12-28T01:21:06;9.00;99.90
12604;DHT22;6367;52.508;13.284;2023-12-28T01:23:32;8.90;99.90
12604;DHT22;6367;52.508;13.284;2023-12-28T01:25:59;8.90;99.90
12604;DHT22;6367;52.508;13.284;2023-12-28T01:28:25;9.00;99.90
12604;DHT22;6367;52.508;13.284;2023-12-28T01:30:50;9.00;99.90
12604;DHT22;6367;52.508;13.284;2023-12-28T01:33:16;9.00;99.90
12604;DHT22;6367;52.508;13.284;2023-12-28T01:35:42;9.00;99.90
12604;DHT22;6367;52.508;13.284;2023-12-28T01:38:08;9.50;99.90
12604;DHT22;6367;52.508;13.284;2023-12-28T01:40:33;9.40;99.90
12604;DHT22;6367;52.508;13.284;2023-12-28T01:42:59;9.00;99.90
12604;DHT22;6367;52.508;13.284;2023-12-28T01:45:25;9.00;99.90
12604;DHT22;6367;52.508;13.284;2023-12-28T01:47:50;9.20;99.90
12604;DHT22;6367;52.508;13.284;2023-12-28T01:50:18;9.10;99.90
12604;DHT22;6367;52.508;13.284;2023-12-28T01:52:44;9.10;99.90
12604;DHT22;6367;52.508;13.284;2023-12-28T01:55:10;9.10;99.90
12604;DHT22;6367;52.508;13.284;2023-12-28T01:57:36;8.30;99.90
12604;DHT22;6367;52.508;13.284;2023-12-28T02:00:03;9.00;99.90
12604;DHT22;6367;52.508;13.284;2023-12-28T02:02:30;9.00;99.90
12604;DHT22;6367;52.508;13.284;2023-12-28T02:04:56;9.50;99.90
12604;DHT22;6367;52.508;13.284;2023-12-28T02:07:24;9.10;99.90
12604;DHT22;6367;52.508;13.284;2023-12-28T02:09:49;9.10;99.90
12604;DHT22;6367;52.508;13.284;2023-12-28T02:12:15;9.10;99.90
12604;DHT22;6367;52.508;13.284;2023-12-28T02:14:41;9.10;99.90
12604;DHT22;6367;52.508;13.284;2023-12-28T02:17:14;9.20;99.90
12604;DHT22;6367;52.508;13.284;2023-12-28T02:19:49;9.20;99.90
12604;DHT22;6367;52.508;13.284;2023-12-28T02:22:15;9.30;99.90
12604;DHT22;6367;52.508;13.284;2023-12-28T02:25:04;9.40;99.90
12604;DHT22;6367;52.508;13.284;2023-12-28T02:27:30;9.40;99.90
12604;DHT22;6367;52.508;13.284;2023-12-28T02:29:56;9.50;99.90
12604;DHT22;6367;52.508;13.284;2023-12-28T02:32:36;9.50;99.90
12604;DHT22;6367;52.508;13.284;2023-12-28T02:35:57;9.60;99.90
12604;DHT22;6367;52.508;13.284;2023-12-28T02:38:20;9.70;99.90
12604;DHT22;6367;52.508;13.284;2023-12-28T02:40:45;9.80;99.90
12604;DHT22;6367;52.508;13.284;2023-12-28T02:43:13;9.90;99.90
12604;DHT22;6367;52.508;13.284;2023-12-28T02:45:39;10.00;99.90
12604;DHT22;6367;52.508;13.284;2023-12-28T02:48:05;10.10;99.90
12604;DHT22;6367;52.508;13.284;2023-12-28T02:50:31;10.10;99.90
12604;DHT22;6367;52.508;13.284;2023-12-28T02:52:57;10.20;99.90
12604;DHT22;6367;52.508;13.284;2023-12-28T02:55:23;10.30;99.90
12604;DHT22;6367;52.508;13.284;2023-12-28T02:57:54;10.40;99.90
12604;DHT22;6367;52.508;13.284;2023-12-28T03:00:21;10.40;99.90
12604;DHT22;6367;52.508;13.284;2023-12-28T03:02:46;10.50;99.90
12604;DHT22;6367;52.508;13.284;2023-12-28T03:05:12;10.50;99.90
12604;DHT22;6367;52.508;13.284;2023-12-28T03:07:38;10.60;99.90
12604;DHT22;6367;52.508;13.284;2023-12-28T03:10:06;11.30;99.90
12604;DHT22;6367;52.508;13.284;2023-12-28T03:12:31;10.70;99.90
12604;DHT22;6367;52.508;13.284;2023-12-28T03:14:57;10.80;99.90
12604;DHT22;6367;52.508;13.284;2023-12-28T03:17:23;10.80;99.90
12604;DHT22;6367;52.508;13.284;2023-12-28T03:19:48;10.90;99.90
12604;DHT22;6367;52.508;13.284;2023-12-28T03:22:14;10.90;99.90
12604;DHT22;6367;52.508;13.284;2023-12-28T03:24:40;10.90;99.90
12604;DHT22;6367;52.508;13.284;2023-12-28T03:27:06;10.90;99.90
12604;DHT22;6367;52.508;13.284;2023-12-28T03:29:33;11.10;99.90
12604;DHT22;6367;52.508;13.284;2023-12-28T03:31:59;11.10;99.90
12604;DHT22;6367;52.508;13.284;2023-12-28T03:34:25;11.20;99.90
12604;DHT22;6367;52.508;13.284;2023-12-28T03:36:52;11.20;99.90
12604;DHT22;6367;52.508;13.284;2023-12-28T03:39:18;11.30;99.90
12604;DHT22;6367;52.508;13.284;2023-12-28T03:41:43;11.30;99.90
12604;DHT22;6367;52.508;13.284;2023-12-28T03:44:09;11.40;99.90
12604;DHT22;6367;52.508;13.284;2023-12-28T03:46:35;11.50;99.90
12604;DHT22;6367;52.508;13.284;2023-12-28T03:49:00;11.50;99.90
12604;DHT22;6367;52.508;13.284;2023-12-28T03:51:26;11.60;99.90
12604;DHT22;6367;52.508;13.284;2023-12-28T03:53:51;11.50;99.90
12604;DHT22;6367;52.508;13.284;2023-12-28T03:56:24;11.50;99.90
12604;DHT22;6367;52.508;13.284;2023-12-28T03:58:51;11.50;99.90
12604;DHT22;6367;52.508;13.284;2023-12-28T04:01:18;11.50;99.90
12604;DHT22;6367;52.508;13.284;2023-12-28T04:03:45;11.40;99.90
12604;DHT22;6367;52.508;13.284;2023-12-28T04:06:11;11.40;99.90
12604;DHT22;6367;52.508;13.284;2023-12-28T04:08:38;11.40;99.90
12604;DHT22;6367;52.508;13.284;2023-12-28T04:11:03;11.40;99.90
12604;DHT22;6367;52.508;13.284;2023-12-28T04:13:29;11.30;99.90
12604;DHT22;6367;52.508;13.284;2023-12-28T04:15:55;11.40;99.90
12604;DHT22;6367;52.508;13.284;2023-12-28T04:18:20;11.40;99.90
12604;DHT22;6367;52.508;13.284;2023-12-28T04:20:47;11.40;99.90
12604;DHT22;6367;52.508;13.284;2023-12-28T04:23:13;11.40;99.90
12604;DHT22;6367;52.508;13.284;2023-12-28T04:25:39;11.40;99.90
12604;DHT22;6367;52.508;13.284;2023-12-28T04:28:05;11.40;99.90
12604;DHT22;6367;52.508;13.284;2023-12-28T04:30:31;11.40;99.90
12604;DHT22;6367;52.508;13.284;2023-12-28T04:32:56;11.50;99.90
12604;DHT22;6367;52.508;13.284;2023-12-28T04:35:22;11.50;99.90
12604;DHT22;6367;52.508;13.284;2023-12-28T04:37:48;11.50;99.90
12604;DHT22;6367;52.508;13.284;2023-12-28T04:40:13;11.60;99.90
12604;DHT22;6367;52.508;13.284;2023-12-28T04:42:40;11.50;99.90
12604;DHT22;6367;52.508;13.284;2023-12-28T04:45:07;11.60;99.90
12604;DHT22;6367;52.508;13.284;2023-12-28T04:47:32;11.60;99.90
12604;DHT22;6367;52.508;13.284;2023-12-28T04:49:58;11.60;99.90
12604;DHT22;6367;52.508;13.284;2023-12-28T04:52:24;11.60;99.90
12604;DHT22;6367;52.508;13.284;2023-12-28T04:54:50;11.60;99.90
12604;DHT22;6367;52.508;13.284;2023-12-28T04:57:16;11.60;99.90
12604;DHT22;6367;52.508;13.284;2023-12-28T04:59:42;11.70;99.90
12604;DHT22;6367;52.508;13.284;2023-12-28T05:02:07;11.80;99.90
12604;DHT22;6367;52.508;13.284;2023-12-28T05:04:36;11.40;99.90
12604;DHT22;6367;52.508;13.284;2023-12-28T05:07:03;11.80;99.90
12604;DHT22;6367;52.508;13.284;2023-12-28T05:09:29;11.80;99.90
12604;DHT22;6367;52.508;13.284;2023-12-28T05:11:55;11.90;99.90
12604;DHT22;6367;52.508;13.284;2023-12-28T05:14:20;11.90;99.90
12604;DHT22;6367;52.508;13.284;2023-12-28T05:16:46;11.80;99.90
12604;DHT22;6367;52.508;13.284;2023-12-28T05:19:11;11.90;99.90
12604;DHT22;6367;52.508;13.284;2023-12-28T05:21:37;11.90;99.90
12604;DHT22;6367;52.508;13.284;2023-12-28T05:24:03;12.00;99.90
12604;DHT22;6367;52.508;13.284;2023-12-28T05:26:28;12.00;99.90
12604;DHT22;6367;52.508;13.284;2023-12-28T05:28:54;12.00;99.90
12604;DHT22;6367;52.508;13.284;2023-12-28T05:31:19;12.00;99.90
12604;DHT22;6367;52.508;13.284;2023-12-28T05:33:45;12.00;99.90
12604;DHT22;6367;52.508;13.284;2023-12-28T05:36:11;12.00;99.90
12604;DHT22;6367;52.508;13.284;2023-12-28T05:38:37;12.00;99.90
12604;DHT22;6367;52.508;13.284;2023-12-28T05:41:02;12.00;99.90
12604;DHT22;6367;52.508;13.284;2023-12-28T05:43:28;12.00;99.90
12604;DHT22;6367;52.508;13.284;2023-12-28T05:45:53;11.90;99.90
12604;DHT22;6367;52.508;13.284;2023-12-28T05:48:19;11.90;99.90
12604;DHT22;6367;52.508;13.284;2023-12-28T05:50:44;12.00;99.90
12604;DHT22;6367;52.508;13.284;2023-12-28T05:53:10;12.00;99.90
12604;DHT22;6367;52.508;13.284;2023-12-28T05:55:43;12.00;99.90
12604;DHT22;6367;52.508;13.284;2023-12-28T05:58:09;12.00;99.90
12604;DHT22;6367;52.508;13.284;2023-12-28T06:00:35;12.00;99.90
12604;DHT22;6367;52.508;13.284;2023-12-28T06:03:07;12.10;99.90
12604;DHT22;6367;52.508;13.284;2023-12-28T06:05:33;12.10;99.90
12604;DHT22;6367;52.508;13.284;2023-12-28T06:07:58;12.00;99.90
12604;DHT22;6367;52.508;13.284;2023-12-28T06:10:24;12.10;99.90
12604;DHT22;6367;52.508;13.284;2023-12-28T06:12:50;12.00;99.90
12604;DHT22;6367;52.508;13.284;2023-12-28T06:15:16;12.00;99.90
12604;DHT22;6367;52.508;13.284;2023-12-28T06:17:42;12.10;99.90
12604;DHT22;6367;52.508;13.284;2023-12-28T06:20:08;12.10;99.90
12604;DHT22;6367;52.508;13.284;2023-12-28T06:22:36;12.10;99.90
12604;DHT22;6367;52.508;13.284;2023-12-28T06:25:02;12.10;99.90
12604;DHT22;6367;52.508;13.284;2023-12-28T06:27:29;12.10;99.90
12604;DHT22;6367;52.508;13.284;2023-12-28T06:29:54;12.00;99.90
12604;DHT22;6367;52.508;13.284;2023-12-28T06:32:20;12.10;99.90
12604;DHT22;6367;52.508;13.284;2023-12-28T06:34:46;12.10;99.90
12604;DHT22;6367;52.508;13.284;2023-12-28T06:37:12;12.10;99.90
12604;DHT22;6367;52.508;13.284;2023-12-28T06:39:39;12.20;99.90
12604;DHT22;6367;52.508;13.284;2023-12-28T06:42:04;12.20;99.90
12604;DHT22;6367;52.508;13.284;2023-12-28T06:44:30;12.10;99.90
12604;DHT22;6367;52.508;13.284;2023-12-28T06:46:56;12.10;99.90
12604;DHT22;6367;52.508;13.284;2023-12-28T06:49:21;12.10;99.90
12604;DHT22;6367;52.508;13.284;2023-12-28T06:51:47;12.00;99.90
12604;DHT22;6367;52.508;13.284;2023-12-28T06:54:13;12.10;99.90
12604;DHT22;6367;52.508;13.284;2023-12-28T06:56:40;12.10;99.90
12604;DHT22;6367;52.508;13.284;2023-12-28T06:59:06;12.10;99.90
12604;DHT22;6367;52.508;13.284;2023-12-28T07:01:31;12.10;99.90
12604;DHT22;6367;52.508;13.284;2023-12-28T07:03:57;12.20;99.90
12604;DHT22;6367;52.508;13.284;2023-12-28T07:06:25;12.20;99.90
12604;DHT22;6367;52.508;13.284;2023-12-28T07:08:50;12.10;99.90
12604;DHT22;6367;52.508;13.284;2023-12-28T07:11:16;12.10;99.90
12604;DHT22;6367;52.508;13.284;2023-12-28T07:13:42;12.10;99.90
12604;DHT22;6367;52.508;13.284;2023-12-28T07:16:08;12.20;99.90
12604;DHT22;6367;52.508;13.284;2023-12-28T07:18:34;12.20;99.90
12604;DHT22;6367;52.508;13.284;2023-12-28T07:20:59;12.10;99.90
12604;DHT22;6367;52.508;13.284;2023-12-28T07:23:28;12.10;99.90
12604;DHT22;6367;52.508;13.284;2023-12-28T07:25:54;12.10;99.90
12604;DHT22;6367;52.508;13.284;2023-12-28T07:28:20;12.10;99.90
12604;DHT22;6367;52.508;13.284;2023-12-28T07:30:46;12.30;99.90
12604;DHT22;6367;52.508;13.284;2023-12-28T07:33:12;12.10;99.90
12604;DHT22;6367;52.508;13.284;2023-12-28T07:35:37;12.10;99.90
12604;DHT22;6367;52.508;13.284;2023-12-28T07:38:03;12.20;99.90
12604;DHT22;6367;52.508;13.284;2023-12-28T07:40:29;12.10;99.90
12604;DHT22;6367;52.508;13.284;2023-12-28T07:42:54;12.10;99.90
12604;DHT22;6367;52.508;13.284;2023-12-28T07:45:20;12.10;99.90
12604;DHT22;6367;52.508;13.284;2023-12-28T07:47:49;12.10;99.90
12604;DHT22;6367;52.508;13.284;2023-12-28T07:50:16;12.10;99.90
12604;DHT22;6367;52.508;13.284;2023-12-28T07:52:42;12.10;99.90
12604;DHT22;6367;52.508;13.284;2023-12-28T07:55:08;12.10;99.90
12604;DHT22;6367;52.508;13.284;2023-12-28T07:57:34;12.10;99.90
12604;DHT22;6367;52.508;13.284;2023-12-28T08:00:01;12.10;99.90
12604;DHT22;6367;52.508;13.284;2023-12-28T08:02:26;12.20;99.90
12604;DHT22;6367;52.508;13.284;2023-12-28T08:04:53;12.20;99.90
12604;DHT22;6367;52.508;13.284;2023-12-28T08:07:18;12.20;99.90
12604;DHT22;6367;52.508;13.284;2023-12-28T08:09:44;12.10;99.90
12604;DHT22;6367;52.508;13.284;2023-12-28T08:12:10;12.10;99.90
12604;DHT22;6367;52.508;13.284;2023-12-28T08:14:35;12.20;99.90
12604;DHT22;6367;52.508;13.284;2023-12-28T08:17:01;12.20;99.90
12604;DHT22;6367;52.508;13.284;2023-12-28T08:19:27;12.20;99.90
12604;DHT22;6367;52.508;13.284;2023-12-28T08:21:52;12.20;99.90
12604;DHT22;6367;52.508;13.284;2023-12-28T08:24:18;12.20;99.90
12604;DHT22;6367;52.508;13.284;2023-12-28T08:26:43;12.10;99.90
12604;DHT22;6367;52.508;13.284;2023-12-28T08:29:09;12.20;99.90
12604;DHT22;6367;52.508;13.284;2023-12-28T08:31:35;12.20;99.90
12604;DHT22;6367;52.508;13.284;2023-12-28T08:34:00;12.20;99.90
12604;DHT22;6367;52.508;13.284;2023-12-28T08:36:26;12.30;99.90
12604;DHT22;6367;52.508;13.284;2023-12-28T08:38:52;12.30;99.90
12604;DHT22;6367;52.508;13.284;2023-12-28T08:41:22;12.30;99.90
12604;DHT22;6367;52.508;13.284;2023-12-28T08:43:49;12.40;99.90
12604;DHT22;6367;52.508;13.284;2023-12-28T08:46:15;12.40;99.90
12604;DHT22;6367;52.508;13.284;2023-12-28T08:48:41;12.40;99.90
12604;DHT22;6367;52.508;13.284;2023-12-28T08:51:09;12.30;99.90
12604;DHT22;6367;52.508;13.284;2023-12-28T08:53:35;12.40;99.90
12604;DHT22;6367;52.508;13.284;2023-12-28T08:56:00;12.40;99.90
12604;DHT22;6367;52.508;13.284;2023-12-28T08:58:26;12.40;99.90
12604;DHT22;6367;52.508;13.284;2023-12-28T09:00:51;12.40;99.90
12604;DHT22;6367;52.508;13.284;2023-12-28T09:03:17;12.40;99.90
12604;DHT22;6367;52.508;13.284;2023-12-28T09:05:43;12.40;99.90
12604;DHT22;6367;52.508;13.284;2023-12-28T09:08:08;12.40;99.90
12604;DHT22;6367;52.508;13.284;2023-12-28T09:10:34;12.40;99.90
12604;DHT22;6367;52.508;13.284;2023-12-28T09:13:00;12.50;99.90
12604;DHT22;6367;52.508;13.284;2023-12-28T09:15:25;12.60;99.90
12604;DHT22;6367;52.508;13.284;2023-12-28T09:17:51;12.50;99.90
12604;DHT22;6367;52.508;13.284;2023-12-28T09:20:18;12.60;99.90
12604;DHT22;6367;52.508;13.284;2023-12-28T09:22:44;12.50;99.90
12604;DHT22;6367;52.508;13.284;2023-12-28T09:25:11;12.50;99.90
12604;DHT22;6367;52.508;13.284;2023-12-28T09:27:37;12.50;99.90
12604;DHT22;6367;52.508;13.284;2023-12-28T09:30:03;12.50;99.90
12604;DHT22;6367;52.508;13.284;2023-12-28T09:32:28;12.50;99.90
12604;DHT22;6367;52.508;13.284;2023-12-28T09:34:54;12.60;99.90
12604;DHT22;6367;52.508;13.284;2023-12-28T09:37:19;12.60;99.90
12604;DHT22;6367;52.508;13.284;2023-12-28T09:39:45;12.50;99.90
12604;DHT22;6367;52.508;13.284;2023-12-28T09:42:25;12.60;99.90
12604;DHT22;6367;52.508;13.284;2023-12-28T09:44:52;12.60;99.90
12604;DHT22;6367;52.508;13.284;2023-12-28T09:47:18;12.50;99.90
12604;DHT22;6367;52.508;13.284;2023-12-28T09:49:45;12.60;99.90
12604;DHT22;6367;52.508;13.284;2023-12-28T09:52:12;12.50;99.90
12604;DHT22;6367;52.508;13.284;2023-12-28T09:54:38;12.50;99.90
12604;DHT22;6367;52.508;13.284;2023-12-28T09:57:04;12.50;99.90
12604;DHT22;6367;52.508;13.284;2023-12-28T09:59:31;12.50;99.90
12604;DHT22;6367;52.508;13.284;2023-12-28T10:01:59;12.50;99.90
12604;DHT22;6367;52.508;13.284;2023-12-28T10:04:26;12.40;99.90
12604;DHT22;6367;52.508;13.284;2023-12-28T10:06:54;12.40;99.90
12604;DHT22;6367;52.508;13.284;2023-12-28T10:09:21;12.40;99.90
12604;DHT22;6367;52.508;13.284;2023-12-28T10:11:47;12.40;99.90
12604;DHT22;6367;52.508;13.284;2023-12-28T10:14:13;12.40;99.90
12604;DHT22;6367;52.508;13.284;2023-12-28T10:16:42;12.50;99.90
12604;DHT22;6367;52.508;13.284;2023-12-28T10:19:08;12.50;99.90
12604;DHT22;6367;52.508;13.284;2023-12-28T10:21:33;12.60;99.90
12604;DHT22;6367;52.508;13.284;2023-12-28T10:23:59;12.60;99.90
12604;DHT22;6367;52.508;13.284;2023-12-28T10:26:26;12.70;99.90
12604;DHT22;6367;52.508;13.284;2023-12-28T10:29:01;12.70;99.90
12604;DHT22;6367;52.508;13.284;2023-12-28T10:31:28;12.70;99.90
12604;DHT22;6367;52.508;13.284;2023-12-28T10:33:58;12.80;99.90
12604;DHT22;6367;52.508;13.284;2023-12-28T10:36:24;12.90;99.90
12604;DHT22;6367;52.508;13.284;2023-12-28T10:38:53;12.90;99.90
12604;DHT22;6367;52.508;13.284;2023-12-28T10:41:20;12.90;99.90
12604;DHT22;6367;52.508;13.284;2023-12-28T10:44:05;13.00;99.90
12604;DHT22;6367;52.508;13.284;2023-12-28T10:46:32;13.00;99.90
12604;DHT22;6367;52.508;13.284;2023-12-28T10:49:08;13.10;99.90
12604;DHT22;6367;52.508;13.284;2023-12-28T10:51:36;13.00;99.90
12604;DHT22;6367;52.508;13.284;2023-12-28T10:56:43;13.10;99.90
12604;DHT22;6367;52.508;13.284;2023-12-28T10:59:24;13.10;99.90
12604;DHT22;6367;52.508;13.284;2023-12-28T11:01:56;13.20;99.90
12604;DHT22;6367;52.508;13.284;2023-12-28T11:07:02;13.20;99.90
12604;DHT22;6367;52.508;13.284;2023-12-28T11:09:30;13.20;99.90
12604;DHT22;6367;52.508;13.284;2023-12-28T11:11:57;13.20;99.90
12604;DHT22;6367;52.508;13.284;2023-12-28T11:14:27;13.30;99.90
12604;DHT22;6367;52.508;13.284;2023-12-28T11:16:53;13.30;99.90
12604;DHT22;6367;52.508;13.284;2023-12-28T11:19:21;13.30;99.90
12604;DHT22;6367;52.508;13.284;2023-12-28T11:21:48;13.30;99.90
12604;DHT22;6367;52.508;13.284;2023-12-28T11:24:15;13.40;99.90
12604;DHT22;6367;52.508;13.284;2023-12-28T11:26:42;13.50;99.90
12604;DHT22;6367;52.508;13.284;2023-12-28T11:29:08;13.50;99.90
12604;DHT22;6367;52.508;13.284;2023-12-28T11:31:35;13.60;99.90
12604;DHT22;6367;52.508;13.284;2023-12-28T11:34:01;13.60;99.90
12604;DHT22;6367;52.508;13.284;2023-12-28T11:36:38;13.40;99.90
12604;DHT22;6367;52.508;13.284;2023-12-28T11:39:06;13.50;99.90
12604;DHT22;6367;52.508;13.284;2023-12-28T11:41:38;13.50;99.90
12604;DHT22;6367;52.508;13.284;2023-12-28T11:44:05;13.50;99.90
12604;DHT22;6367;52.508;13.284;2023-12-28T11:46:31;13.60;99.90
12604;DHT22;6367;52.508;13.284;2023-12-28T11:49:07;13.50;99.90
12604;DHT22;6367;52.508;13.284;2023-12-28T11:51:35;13.60;99.90
12604;DHT22;6367;52.508;13.284;2023-12-28T11:54:01;13.60;99.90
12604;DHT22;6367;52.508;13.284;2023-12-28T11:56:29;13.60;99.90
12604;DHT22;6367;52.508;13.284;2023-12-28T11:58:55;13.60;99.90
12604;DHT22;6367;52.508;13.284;2023-12-28T12:01:20;13.70;99.90
12604;DHT22;6367;52.508;13.284;2023-12-28T12:03:47;13.70;99.90
12604;DHT22;6367;52.508;13.284;2023-12-28T12:06:13;13.70;99.90
12604;DHT22;6367;52.508;13.284;2023-12-28T12:08:39;13.80;99.90
12604;DHT22;6367;52.508;13.284;2023-12-28T12:11:05;13.80;99.90
12604;DHT22;6367;52.508;13.284;2023-12-28T12:13:31;13.80;99.90
12604;DHT22;6367;52.508;13.284;2023-12-28T12:15:57;13.70;99.90
12604;DHT22;6367;52.508;13.284;2023-12-28T12:18:23;13.70;99.90
12604;DHT22;6367;52.508;13.284;2023-12-28T12:20:50;13.70;99.90
12604;DHT22;6367;52.508;13.284;2023-12-28T12:23:15;13.70;99.90
12604;DHT22;6367;52.508;13.284;2023-12-28T12:25:42;13.80;99.90
12604;DHT22;6367;52.508;13.284;2023-12-28T12:28:07;13.80;99.90
12604;DHT22;6367;52.508;13.284;2023-12-28T12:30:34;13.80;99.90
12604;DHT22;6367;52.508;13.284;2023-12-28T12:33:00;13.80;99.90
12604;DHT22;6367;52.508;13.284;2023-12-28T12:35:25;13.80;99.90
12604;DHT22;6367;52.508;13.284;2023-12-28T12:37:51;13.80;99.90
12604;DHT22;6367;52.508;13.284;2023-12-28T12:40:18;13.70;99.90
12604;DHT22;6367;52.508;13.284;2023-12-28T12:42:56;13.80;99.90
12604;DHT22;6367;52.508;13.284;2023-12-28T12:45:21;13.80;99.90
12604;DHT22;6367;52.508;13.284;2023-12-28T12:47:47;13.70;99.90
12604;DHT22;6367;52.508;13.284;2023-12-28T12:50:15;13.60;99.90
12604;DHT22;6367;52.508;13.284;2023-12-28T12:52:42;13.70;99.90
12604;DHT22;6367;52.508;13.284;2023-12-28T12:55:12;13.80;99.90
12604;DHT22;6367;52.508;13.284;2023-12-28T12:57:38;13.70;99.90
12604;DHT22;6367;52.508;13.284;2023-12-28T13:00:05;13.70;99.90
12604;DHT22;6367;52.508;13.284;2023-12-28T13:02:34;13.70;99.90
12604;DHT22;6367;52.508;13.284;2023-12-28T13:05:03;13.70;99.90
12604;DHT22;6367;52.508;13.284;2023-12-28T13:07:31;13.70;99.90
12604;DHT22;6367;52.508;13.284;2023-12-28T13:09:57;13.60;99.90
12604;DHT22;6367;52.508;13.284;2023-12-28T13:12:22;13.70;99.90
12604;DHT22;6367;52.508;13.284;2023-12-28T13:14:49;13.70;99.90
12604;DHT22;6367;52.508;13.284;2023-12-28T13:17:15;13.70;99.90
12604;DHT22;6367;52.508;13.284;2023-12-28T13:19:42;13.70;99.90
12604;DHT22;6367;52.508;13.284;2023-12-28T13:22:07;13.70;99.90
12604;DHT22;6367;52.508;13.284;2023-12-28T13:24:33;13.20;99.90
12604;DHT22;6367;52.508;13.284;2023-12-28T13:26:59;13.70;99.90
12604;DHT22;6367;52.508;13.284;2023-12-28T13:29:26;13.80;99.90
12604;DHT22;6367;52.508;13.284;2023-12-28T13:31:51;13.70;99.90
12604;DHT22;6367;52.508;13.284;2023-12-28T13:34:17;13.70;99.90
12604;DHT22;6367;52.508;13.284;2023-12-28T13:36:47;13.80;99.90
12604;DHT22;6367;52.508;13.284;2023-12-28T13:39:18;13.80;99.90
12604;DHT22;6367;52.508;13.284;2023-12-28T13:41:44;13.70;99.90
12604;DHT22;6367;52.508;13.284;2023-12-28T13:44:10;13.80;99.90
12604;DHT22;6367;52.508;13.284;2023-12-28T13:46:38;13.70;99.90
12604;DHT22;6367;52.508;13.284;2023-12-28T13:49:04;13.80;99.90
12604;DHT22;6367;52.508;13.284;2023-12-28T13:51:33;13.70;99.90
12604;DHT22;6367;52.508;13.284;2023-12-28T13:53:59;13.70;99.90
12604;DHT22;6367;52.508;13.284;2023-12-28T13:56:25;13.70;99.90
12604;DHT22;6367;52.508;13.284;2023-12-28T13:58:50;13.70;99.90
12604;DHT22;6367;52.508;13.284;2023-12-28T14:01:16;13.70;99.90
12604;DHT22;6367;52.508;13.284;2023-12-28T14:03:42;13.70;99.90
12604;DHT22;6367;52.508;13.284;2023-12-28T14:06:09;13.70;99.90
12604;DHT22;6367;52.508;13.284;2023-12-28T14:08:35;13.70;99.90
12604;DHT22;6367;52.508;13.284;2023-12-28T14:11:01;13.70;99.90
12604;DHT22;6367;52.508;13.284;2023-12-28T14:13:27;13.70;99.90
12604;DHT22;6367;52.508;13.284;2023-12-28T14:15:54;13.80;99.90
12604;DHT22;6367;52.508;13.284;2023-12-28T14:18:19;13.70;99.90
12604;DHT22;6367;52.508;13.284;2023-12-28T14:20:45;13.70;99.90
12604;DHT22;6367;52.508;13.284;2023-12-28T14:23:11;13.70;99.90
12604;DHT22;6367;52.508;13.284;2023-12-28T14:25:38;13.60;99.90
12604;DHT22;6367;52.508;13.284;2023-12-28T14:28:03;13.70;99.90
12604;DHT22;6367;52.508;13.284;2023-12-28T14:30:30;13.70;99.90
12604;DHT22;6367;52.508;13.284;2023-12-28T14:32:56;13.60;99.90
12604;DHT22;6367;52.508;13.284;2023-12-28T14:35:22;13.60;99.90
12604;DHT22;6367;52.508;13.284;2023-12-28T14:37:51;13.60;99.90
12604;DHT22;6367;52.508;13.284;2023-12-28T14:40:16;13.00;99.90
12604;DHT22;6367;52.508;13.284;2023-12-28T14:42:42;13.50;99.90
12604;DHT22;6367;52.508;13.284;2023-12-28T14:45:08;13.50;99.90
12604;DHT22;6367;52.508;13.284;2023-12-28T14:47:34;13.50;99.90
12604;DHT22;6367;52.508;13.284;2023-12-28T14:50:01;13.40;99.90
12604;DHT22;6367;52.508;13.284;2023-12-28T14:52:27;13.40;99.90
12604;DHT22;6367;52.508;13.284;2023-12-28T14:54:52;13.40;99.90
12604;DHT22;6367;52.508;13.284;2023-12-28T14:57:22;13.40;99.90
12604;DHT22;6367;52.508;13.284;2023-12-28T14:59:50;13.40;99.90
12604;DHT22;6367;52.508;13.284;2023-12-28T15:02:16;13.40;99.90
12604;DHT22;6367;52.508;13.284;2023-12-28T15:04:42;13.40;99.90
12604;DHT22;6367;52.508;13.284;2023-12-28T15:07:07;13.40;99.90
12604;DHT22;6367;52.508;13.284;2023-12-28T15:09:33;13.40;99.90
12604;DHT22;6367;52.508;13.284;2023-12-28T15:11:59;13.30;99.90
12604;DHT22;6367;52.508;13.284;2023-12-28T15:14:25;13.30;99.90
12604;DHT22;6367;52.508;13.284;2023-12-28T15:16:51;13.20;99.90
12604;DHT22;6367;52.508;13.284;2023-12-28T15:19:17;13.10;99.90
12604;DHT22;6367;52.508;13.284;2023-12-28T15:21:43;13.10;99.90
12604;DHT22;6367;52.508;13.284;2023-12-28T15:24:09;13.20;99.90
12604;DHT22;6367;52.508;13.284;2023-12-28T15:26:35;13.10;99.90
12604;DHT22;6367;52.508;13.284;2023-12-28T15:29:02;13.20;99.90
12604;DHT22;6367;52.508;13.284;2023-12-28T15:31:28;13.20;99.90
12604;DHT22;6367;52.508;13.284;2023-12-28T15:33:55;13.10;99.90